Time;durP1;ratioP1;P1;durP2;ratioP2;P2;SDS_P1;SDS_P2;PMS_P1;PMS_P2;Temp;Humidity;BMP_temperature;BMP_pressure;BME280_temperature;BME280_humidity;BME280_pressure;Samples;Min_cycle;Max_cycle;Signal;HPM_P1;HPM_P2
2023/04/15 00:01:18;;;;;;;6.57;2.70;;;7.10;99.90;;;;;;4040279;29;20458;-91
2023/04/15 00:03:19;;;;;;;9.70;3.00;;;7.10;99.90;;;;;;4024561;29;20483;-92
2023/04/15 00:05:21;;;;;;;7.65;3.17;;;7.00;99.90;;;;;;4025357;29;20026;-91
2023/04/15 00:07:24;;;;;;;7.55;2.72;;;6.90;99.90;;;;;;4046133;29;20049;-91
2023/04/15 00:09:27;;;;;;;8.77;3.13;;;6.90;99.90;;;;;;4010414;29;20145;-92
2023/04/15 00:11:28;;;;;;;8.20;3.03;;;6.90;99.90;;;;;;4010545;29;20060;-92
2023/04/15 00:13:31;;;;;;;10.23;3.42;;;6.70;99.90;;;;;;4011740;29;20050;-91
2023/04/15 00:15:32;;;;;;;7.35;3.17;;;6.80;99.90;;;;;;4023701;29;20049;-92
2023/04/15 00:17:39;;;;;;;9.27;2.90;;;7.30;99.90;;;;;;4010790;29;20030;-92
2023/04/15 00:19:43;;;;;;;8.18;2.80;;;6.70;99.90;;;;;;4011925;29;20057;-92
2023/04/15 00:21:44;;;;;;;6.60;2.97;;;7.00;99.90;;;;;;4011266;29;20050;-92
2023/04/15 00:23:51;;;;;;;9.75;3.55;;;6.70;99.90;;;;;;4027189;29;20048;-91
2023/04/15 00:25:52;;;;;;;6.45;2.92;;;6.80;99.90;;;;;;4011043;29;20057;-91
2023/04/15 00:27:53;;;;;;;5.15;3.08;;;6.60;99.90;;;;;;4010552;29;20049;-92
2023/04/15 00:29:55;;;;;;;7.65;2.83;;;6.50;99.90;;;;;;4011268;29;20040;-92
2023/04/15 00:31:58;;;;;;;5.03;2.90;;;6.70;99.90;;;;;;4033787;29;20029;-92
2023/04/15 00:33:59;;;;;;;9.70;3.17;;;6.40;99.90;;;;;;4011658;29;20065;-91
2023/04/15 00:36:02;;;;;;;8.25;3.30;;;6.40;99.90;;;;;;4011429;29;20062;-90
2023/04/15 00:38:05;;;;;;;6.53;3.15;;;6.40;99.90;;;;;;4011139;29;20095;-92
2023/04/15 00:40:09;;;;;;;6.10;3.45;;;6.40;99.90;;;;;;4025988;29;20045;-91
2023/04/15 00:42:09;;;;;;;6.47;3.38;;;6.40;99.90;;;;;;4041623;29;20499;-92
2023/04/15 00:44:11;;;;;;;8.43;3.72;;;6.40;99.90;;;;;;4027833;29;20064;-91
2023/04/15 00:46:16;;;;;;;9.43;3.58;;;6.40;99.90;;;;;;4028987;29;20061;-91
2023/04/15 00:48:17;;;;;;;9.57;3.95;;;7.40;99.90;;;;;;4028452;29;20041;-92
2023/04/15 00:50:18;;;;;;;9.57;3.85;;;7.10;99.90;;;;;;4035288;29;20446;-91
2023/04/15 00:52:19;;;;;;;7.05;3.35;;;6.30;99.90;;;;;;4024547;29;20096;-91
2023/04/15 00:54:22;;;;;;;7.93;3.13;;;6.30;99.90;;;;;;4027787;29;20033;-91
2023/04/15 00:56:25;;;;;;;8.40;3.30;;;6.30;99.90;;;;;;4026543;29;20061;-90
2023/04/15 00:58:28;;;;;;;12.80;3.78;;;6.20;99.90;;;;;;4026883;29;20092;-91
2023/04/15 01:00:35;;;;;;;7.55;3.33;;;6.90;99.90;;;;;;4013943;29;20507;-90
2023/04/15 01:02:37;;;;;;;11.27;4.13;;;6.70;99.90;;;;;;4028369;29;20053;-91
2023/04/15 01:04:41;;;;;;;7.32;3.75;;;6.10;99.90;;;;;;4014971;29;20033;-91
2023/04/15 01:06:42;;;;;;;9.63;3.65;;;7.80;99.90;;;;;;4014037;29;20049;-91
2023/04/15 01:08:44;;;;;;;8.75;4.13;;;6.30;99.90;;;;;;4029742;29;20591;-91
2023/04/15 01:10:45;;;;;;;10.60;4.20;;;6.90;99.90;;;;;;4029124;29;20040;-90
2023/04/15 01:12:48;;;;;;;6.97;3.65;;;6.10;99.90;;;;;;4028509;29;20061;-91
2023/04/15 01:14:49;;;;;;;10.20;4.45;;;6.10;99.90;;;;;;4045343;29;20467;-91
2023/04/15 01:16:52;;;;;;;9.05;3.95;;;6.00;99.90;;;;;;4027185;29;20471;-91
2023/04/15 01:18:54;;;;;;;8.27;4.45;;;6.00;99.90;;;;;;4030239;29;20075;-91
2023/04/15 01:20:57;;;;;;;13.15;3.90;;;5.90;99.90;;;;;;4028110;29;20067;-90
2023/04/15 01:22:59;;;;;;;9.73;5.05;;;5.90;99.90;;;;;;4028840;29;20711;-91
2023/04/15 01:25:25;;;;;;;7.93;4.05;;;5.90;99.90;;;;;;4045254;29;20024;-91
2023/04/15 01:27:31;;;;;;;10.43;4.05;;;6.00;99.90;;;;;;4013636;29;20484;-91
2023/04/15 01:29:37;;;;;;;8.27;4.05;;;5.10;99.90;;;;;;4028208;29;20054;-91
2023/04/15 01:31:39;;;;;;;11.38;4.45;;;5.80;99.90;;;;;;4030297;29;20410;-92
2023/04/15 01:33:42;;;;;;;7.07;4.20;;;5.80;99.90;;;;;;4027515;29;20190;-92
2023/04/15 01:35:43;;;;;;;9.60;4.65;;;5.70;99.90;;;;;;4046597;29;20513;-92
2023/04/15 01:37:46;;;;;;;6.80;4.05;;;5.80;99.90;;;;;;4013288;29;20049;-92
2023/04/15 01:39:47;;;;;;;12.05;4.55;;;5.80;99.90;;;;;;4028421;29;20093;-90
2023/04/15 01:41:49;;;;;;;10.07;4.70;;;5.70;99.90;;;;;;4014972;29;20077;-92
2023/04/15 01:43:52;;;;;;;9.20;4.45;;;5.70;99.90;;;;;;4025220;29;20048;-91
2023/04/15 01:45:53;;;;;;;8.05;4.47;;;5.60;99.90;;;;;;4045579;29;20049;-91
2023/04/15 01:47:56;;;;;;;9.73;5.10;;;7.10;99.90;;;;;;4027503;29;20048;-90
2023/04/15 01:50:02;;;;;;;13.15;5.00;;;5.80;99.90;;;;;;4045216;29;20052;-90
2023/04/15 01:52:04;;;;;;;8.65;3.83;;;5.60;99.90;;;;;;4014376;29;20042;-90
2023/04/15 01:54:05;;;;;;;8.35;4.38;;;5.60;99.90;;;;;;4012235;29;20558;-91
2023/04/15 01:56:06;;;;;;;8.93;4.63;;;5.50;99.90;;;;;;4059981;29;20040;-91
2023/04/15 01:58:07;;;;;;;12.05;4.88;;;5.60;99.90;;;;;;4026726;29;20178;-90
2023/04/15 02:00:10;;;;;;;10.60;4.82;;;5.50;99.90;;;;;;4043465;29;20025;-91
2023/04/15 02:02:12;;;;;;;11.13;4.95;;;5.50;99.90;;;;;;4021409;29;20144;-91
2023/04/15 02:04:15;;;;;;;9.73;4.90;;;5.40;99.90;;;;;;4027471;29;20483;-91
2023/04/15 02:06:17;;;;;;;13.68;5.70;;;5.40;99.90;;;;;;4019890;29;20052;-92
2023/04/15 02:08:18;;;;;;;8.63;4.95;;;5.30;99.90;;;;;;4026572;29;20081;-91
2023/04/15 02:10:19;;;;;;;8.90;5.32;;;5.60;99.90;;;;;;4058623;29;20044;-91
2023/04/15 02:12:20;;;;;;;10.48;5.03;;;5.30;99.90;;;;;;4026713;29;20065;-91
2023/04/15 02:14:22;;;;;;;10.88;6.00;;;6.90;99.90;;;;;;4027470;29;20061;-91
2023/04/15 02:16:24;;;;;;;10.57;5.50;;;5.30;99.90;;;;;;4041674;29;20112;-91
2023/04/15 02:18:26;;;;;;;15.77;5.40;;;5.30;99.90;;;;;;4037724;29;20539;-91
2023/04/15 02:20:29;;;;;;;9.65;5.13;;;6.80;99.90;;;;;;4059734;29;20536;-92
2023/04/15 02:22:32;;;;;;;11.98;5.50;;;5.30;99.90;;;;;;4026595;29;20132;-92
2023/04/15 02:24:34;;;;;;;8.50;4.78;;;5.30;99.90;;;;;;4028972;29;20115;-91
2023/04/15 02:26:36;;;;;;;10.35;5.57;;;5.20;99.90;;;;;;4026262;29;20117;-91
2023/04/15 02:28:38;;;;;;;10.90;5.88;;;5.20;99.90;;;;;;4028169;29;20400;-91
2023/04/15 02:30:40;;;;;;;9.65;5.32;;;5.30;99.90;;;;;;4026772;29;20601;-92
2023/04/15 02:32:43;;;;;;;10.93;5.60;;;4.40;99.90;;;;;;4042865;29;20057;-92
2023/04/15 02:34:45;;;;;;;9.73;5.03;;;4.50;99.90;;;;;;4028423;29;20098;-91
2023/04/15 02:36:48;;;;;;;11.02;5.80;;;5.10;99.90;;;;;;4026175;29;20046;-92
2023/04/15 02:38:51;;;;;;;9.40;5.78;;;6.60;99.90;;;;;;4018589;29;20032;-92
2023/04/15 02:40:54;;;;;;;9.45;5.93;;;5.10;99.90;;;;;;4011815;29;20054;-91
2023/04/15 02:42:56;;;;;;;11.40;5.85;;;5.00;99.90;;;;;;4028889;29;20101;-92
2023/04/15 02:44:58;;;;;;;10.13;5.68;;;5.00;99.90;;;;;;4012665;29;20491;-91
2023/04/15 02:47:00;;;;;;;12.30;6.75;;;5.00;99.90;;;;;;4011077;29;20056;-92
2023/04/15 02:49:09;;;;;;;9.80;5.63;;;5.40;99.90;;;;;;4013375;29;20057;-91
2023/04/15 02:51:18;;;;;;;10.27;6.13;;;5.10;99.90;;;;;;4010895;29;20060;-91
2023/04/15 02:53:19;;;;;;;11.60;5.88;;;5.10;99.90;;;;;;4012766;29;20153;-91
2023/04/15 02:55:21;;;;;;;11.27;6.32;;;5.30;99.90;;;;;;4027397;29;20487;-91
2023/04/15 02:57:22;;;;;;;12.77;6.53;;;5.00;99.90;;;;;;4046128;29;20053;-91
2023/04/15 02:59:22;;;;;;;13.63;6.68;;;5.00;99.90;;;;;;4011771;29;20040;-90
2023/04/15 03:01:23;;;;;;;12.13;7.00;;;5.00;99.90;;;;;;4021809;29;20063;-91
2023/04/15 03:03:27;;;;;;;10.95;5.95;;;5.00;99.90;;;;;;4042115;29;20139;-91
2023/04/15 03:05:32;;;;;;;10.95;6.72;;;5.80;99.90;;;;;;4026485;29;20454;-90
2023/04/15 03:07:35;;;;;;;14.60;7.15;;;5.00;99.90;;;;;;4025240;29;20132;-90
2023/04/15 03:09:39;;;;;;;16.65;7.47;;;5.10;99.90;;;;;;4042597;29;20049;-91
2023/04/15 03:11:40;;;;;;;12.07;5.88;;;4.90;99.90;;;;;;4025863;29;20430;-91
2023/04/15 03:13:46;;;;;;;13.73;6.68;;;5.10;99.90;;;;;;4031325;29;20053;-90
2023/04/15 03:15:47;;;;;;;12.68;6.85;;;5.00;99.90;;;;;;4012009;29;20045;-90
2023/04/15 03:17:55;;;;;;;13.20;7.00;;;6.30;99.90;;;;;;4013666;29;20046;-91
2023/04/15 03:19:57;;;;;;;13.43;7.25;;;4.90;99.90;;;;;;4014801;29;20046;-91
2023/04/15 03:21:57;;;;;;;15.35;8.10;;;4.90;99.90;;;;;;4015041;29;20049;-90
2023/04/15 03:23:59;;;;;;;13.48;6.57;;;4.80;99.90;;;;;;4042391;29;20032;-91
2023/04/15 03:26:03;;;;;;;15.45;8.48;;;4.80;99.90;;;;;;4038046;29;20030;-91
2023/04/15 03:28:09;;;;;;;13.48;6.50;;;4.60;99.90;;;;;;4026779;29;20026;-91
2023/04/15 03:30:11;;;;;;;11.55;5.93;;;4.70;99.90;;;;;;4032582;29;20028;-91
2023/04/15 03:32:17;;;;;;;12.40;6.82;;;4.60;99.90;;;;;;4038935;29;20049;-91
2023/04/15 03:34:19;;;;;;;12.82;7.13;;;4.60;99.90;;;;;;4014166;29;20046;-92
2023/04/15 03:36:21;;;;;;;13.40;7.15;;;4.60;99.90;;;;;;4012046;29;20087;-92
2023/04/15 03:38:23;;;;;;;12.48;6.35;;;5.90;99.90;;;;;;4029414;29;20050;-92
2023/04/15 03:40:25;;;;;;;10.82;6.68;;;4.70;99.90;;;;;;4013251;29;20046;-92
2023/04/15 03:42:28;;;;;;;10.82;6.30;;;4.60;99.90;;;;;;4012744;29;20042;-92
2023/04/15 03:44:30;;;;;;;11.80;6.20;;;4.70;99.90;;;;;;4013830;29;20038;-92
2023/04/15 03:46:31;;;;;;;15.45;6.93;;;4.50;99.90;;;;;;4027075;29;20438;-92
2023/04/15 03:48:33;;;;;;;12.23;6.68;;;4.50;99.90;;;;;;4013763;29;20061;-91
2023/04/15 03:50:33;;;;;;;11.80;5.93;;;4.60;99.90;;;;;;4014784;29;20048;-92
2023/04/15 03:52:35;;;;;;;13.30;6.03;;;4.80;99.90;;;;;;4028992;29;20057;-91
2023/04/15 03:54:37;;;;;;;13.95;6.50;;;4.60;99.90;;;;;;4043118;29;20037;-92
2023/04/15 03:56:39;;;;;;;11.63;6.85;;;4.80;99.90;;;;;;4043278;29;20049;-92
2023/04/15 03:58:41;;;;;;;14.35;6.75;;;4.50;99.90;;;;;;4044868;29;20037;-92
2023/04/15 04:00:42;;;;;;;13.25;7.93;;;4.40;99.90;;;;;;4026162;29;20113;-92
2023/04/15 04:02:44;;;;;;;15.60;7.75;;;4.30;99.90;;;;;;4028708;29;20483;-92
2023/04/15 04:04:46;;;;;;;14.30;6.70;;;4.40;99.90;;;;;;4025492;29;20053;-92
2023/04/15 04:06:48;;;;;;;12.20;6.72;;;4.30;99.90;;;;;;4025687;29;20045;-92
2023/04/15 04:08:51;;;;;;;13.57;6.90;;;2.70;99.90;;;;;;4025190;29;20045;-92
2023/04/15 04:10:52;;;;;;;13.70;6.75;;;4.20;99.90;;;;;;4024792;29;20088;-92
2023/04/15 04:12:54;;;;;;;11.75;6.60;;;5.00;99.90;;;;;;4026772;29;20033;-91
2023/04/15 04:14:55;;;;;;;12.95;7.43;;;4.20;99.90;;;;;;4030009;29;20037;-92
2023/04/15 04:16:58;;;;;;;12.48;7.32;;;5.40;99.90;;;;;;4026795;29;20056;-93
2023/04/15 04:19:00;;;;;;;11.43;6.22;;;4.20;99.90;;;;;;4010362;29;20050;-92
2023/04/15 04:21:03;;;;;;;10.93;6.32;;;4.30;99.90;;;;;;4010587;29;20050;-91
2023/04/15 04:23:06;;;;;;;13.90;6.35;;;4.40;99.90;;;;;;4012565;29;20079;-91
2023/04/15 04:25:10;;;;;;;14.10;6.53;;;2.80;99.90;;;;;;4038466;29;20046;-91
2023/04/15 04:27:12;;;;;;;10.35;6.30;;;4.40;99.90;;;;;;4041954;29;20053;-91
2023/04/15 04:29:13;;;;;;;13.43;7.20;;;4.10;99.90;;;;;;4025000;29;20061;-91
2023/04/15 04:31:17;;;;;;;11.73;7.00;;;4.30;99.90;;;;;;4025879;29;20049;-91
2023/04/15 04:33:19;;;;;;;14.43;7.20;;;4.20;99.90;;;;;;4011151;29;20046;-91
2023/04/15 04:35:21;;;;;;;14.05;6.88;;;3.80;99.90;;;;;;4009778;29;20049;-91
2023/04/15 04:37:23;;;;;;;13.48;7.53;;;4.30;99.90;;;;;;4026336;29;20082;-91
2023/04/15 04:39:26;;;;;;;11.80;6.47;;;4.40;99.90;;;;;;4009798;29;20049;-91
2023/04/15 04:41:28;;;;;;;13.23;6.68;;;4.00;99.90;;;;;;4011323;29;20531;-92
2023/04/15 04:43:29;;;;;;;11.82;6.97;;;5.80;99.90;;;;;;4024374;29;20049;-91
2023/04/15 04:45:30;;;;;;;13.82;7.13;;;4.00;99.90;;;;;;4042935;29;20037;-91
2023/04/15 04:47:35;;;;;;;13.32;7.53;;;4.00;99.90;;;;;;4027717;29;20057;-91
2023/04/15 04:49:38;;;;;;;14.60;6.78;;;4.00;99.90;;;;;;4012232;29;20053;-91
2023/04/15 04:51:40;;;;;;;14.18;6.72;;;3.90;99.90;;;;;;4041075;29;20052;-92
2023/04/15 04:53:42;;;;;;;11.57;5.70;;;3.90;99.90;;;;;;4032543;29;20048;-92
2023/04/15 04:55:45;;;;;;;13.25;6.80;;;3.80;99.90;;;;;;4043498;29;20053;-92
2023/04/15 04:57:50;;;;;;;12.95;7.03;;;4.50;99.90;;;;;;4027817;29;20591;-91
2023/04/15 04:59:51;;;;;;;14.90;6.72;;;4.20;99.90;;;;;;4024056;29;20045;-91
2023/04/15 05:01:53;;;;;;;12.40;6.30;;;3.90;99.90;;;;;;4012374;29;20118;-90
2023/04/15 05:03:55;;;;;;;15.55;6.65;;;3.80;99.90;;;;;;4011896;29;20057;-92
2023/04/15 05:05:57;;;;;;;13.98;7.78;;;4.10;99.90;;;;;;4028891;29;20121;-91
2023/04/15 05:07:58;;;;;;;14.27;7.60;;;3.80;99.90;;;;;;4014541;29;20041;-91
2023/04/15 05:10:00;;;;;;;13.25;6.65;;;3.90;99.90;;;;;;4027080;29;20057;-91
2023/04/15 05:12:08;;;;;;;12.88;6.68;;;4.00;99.90;;;;;;4011623;29;20558;-91
2023/04/15 05:14:09;;;;;;;12.38;6.85;;;4.00;99.90;;;;;;4027313;29;20464;-91
2023/04/15 05:16:11;;;;;;;12.40;6.95;;;4.00;99.90;;;;;;4012312;29;20061;-91
2023/04/15 05:18:14;;;;;;;12.30;6.50;;;4.00;99.90;;;;;;4019430;29;23240;-92
2023/04/15 05:20:16;;;;;;;14.27;7.70;;;3.30;99.90;;;;;;4044553;29;20053;-92
2023/04/15 05:22:17;;;;;;;13.68;6.85;;;4.10;99.90;;;;;;4024626;29;20129;-92
2023/04/15 05:24:22;;;;;;;15.43;7.28;;;3.90;99.90;;;;;;4026723;29;20045;-89
2023/04/15 05:26:23;;;;;;;13.98;7.18;;;4.10;99.90;;;;;;4058719;29;20035;-91
2023/04/15 05:28:29;;;;;;;14.60;6.93;;;4.20;99.90;;;;;;4042044;29;20504;-91
2023/04/15 05:30:31;;;;;;;13.15;7.07;;;4.40;99.90;;;;;;4043873;29;20451;-91
2023/04/15 05:32:33;;;;;;;15.05;7.32;;;5.90;99.90;;;;;;4046009;29;20060;-91
2023/04/15 05:34:36;;;;;;;13.85;7.43;;;4.50;99.90;;;;;;4044778;29;20061;-91
2023/04/15 05:36:37;;;;;;;10.68;5.63;;;4.40;99.90;;;;;;4029272;29;20034;-91
2023/04/15 05:38:40;;;;;;;12.20;5.93;;;4.50;99.90;;;;;;4041266;29;20147;-91
2023/04/15 05:40:43;;;;;;;13.88;6.18;;;4.60;99.90;;;;;;4044530;29;20061;-91
2023/04/15 05:42:44;;;;;;;10.82;6.05;;;4.80;99.90;;;;;;4029711;29;20425;-91
2023/04/15 05:44:46;;;;;;;10.95;6.28;;;4.60;99.90;;;;;;4045126;29;20045;-91
2023/04/15 05:46:47;;;;;;;14.15;6.30;;;5.80;99.90;;;;;;4044589;29;20135;-92
2023/04/15 05:48:58;;;;;;;12.52;6.55;;;6.30;99.90;;;;;;4044143;29;20045;-91
2023/04/15 05:51:01;;;;;;;10.23;6.10;;;5.70;99.90;;;;;;4044577;29;20049;-91
2023/04/15 05:53:03;;;;;;;12.85;7.55;;;5.00;99.90;;;;;;4029460;29;20045;-91
2023/04/15 05:55:05;;;;;;;12.30;6.90;;;6.60;99.90;;;;;;4035015;29;20041;-92
2023/04/15 05:57:07;;;;;;;13.60;6.70;;;3.90;99.90;;;;;;4045551;29;20056;-91
2023/04/15 05:59:08;;;;;;;12.70;6.88;;;5.60;99.90;;;;;;4013794;29;20056;-92
2023/04/15 06:01:10;;;;;;;12.40;7.03;;;5.60;99.90;;;;;;4014177;29;20033;-91
2023/04/15 06:03:12;;;;;;;16.98;7.40;;;5.40;99.90;;;;;;4014130;29;20053;-91
2023/04/15 06:05:13;;;;;;;11.82;6.70;;;5.50;99.90;;;;;;4014141;29;20091;-91
2023/04/15 06:07:14;;;;;;;13.30;7.10;;;5.70;99.90;;;;;;4014018;29;20509;-90
2023/04/15 06:09:16;;;;;;;17.88;7.43;;;5.70;99.90;;;;;;4014334;29;20050;-92
2023/04/15 06:11:17;;;;;;;12.20;6.50;;;5.70;99.90;;;;;;4042354;29;20053;-90
2023/04/15 06:13:19;;;;;;;14.35;7.38;;;6.70;99.90;;;;;;4060132;29;20525;-90
2023/04/15 06:15:21;;;;;;;15.23;6.97;;;5.90;99.90;;;;;;4043000;29;20068;-89
2023/04/15 06:17:22;;;;;;;16.63;6.70;;;6.00;99.90;;;;;;4025680;29;20061;-91
2023/04/15 06:19:23;;;;;;;17.65;8.15;;;7.10;99.90;;;;;;4031938;29;20053;-90
2023/04/15 06:21:25;;;;;;;17.67;7.60;;;4.80;99.90;;;;;;4048966;29;20059;-90
2023/04/15 06:23:26;;;;;;;17.10;7.45;;;6.30;99.90;;;;;;4048032;29;20037;-90
2023/04/15 06:25:28;;;;;;;14.30;6.68;;;6.40;99.90;;;;;;4048098;29;20045;-90
2023/04/15 06:27:29;;;;;;;16.85;7.40;;;6.40;99.90;;;;;;4047386;29;20431;-89
2023/04/15 06:29:32;;;;;;;17.20;7.50;;;6.70;99.90;;;;;;4044719;29;20040;-90
2023/04/15 06:31:39;;;;;;;14.80;7.18;;;6.80;99.90;;;;;;4043818;29;20128;-91
2023/04/15 06:33:41;;;;;;;16.85;7.45;;;7.80;99.90;;;;;;4028252;29;20121;-91
2023/04/15 06:35:43;;;;;;;12.65;7.13;;;6.80;99.90;;;;;;4043204;29;20091;-92
2023/04/15 06:37:46;;;;;;;14.02;6.95;;;5.60;99.90;;;;;;4046157;29;20063;-91
2023/04/15 06:39:47;;;;;;;16.13;7.20;;;7.10;99.90;;;;;;4029827;29;20051;-91
2023/04/15 06:41:49;;;;;;;14.27;6.93;;;7.20;99.90;;;;;;4044739;29;20121;-91
2023/04/15 06:43:51;;;;;;;12.18;6.75;;;7.40;99.90;;;;;;4046529;29;20041;-90
2023/04/15 06:45:52;;;;;;;12.55;6.53;;;7.40;99.90;;;;;;4025366;29;20050;-91
2023/04/15 06:47:53;;;;;;;11.95;6.63;;;7.50;99.90;;;;;;4039906;29;20124;-91
2023/04/15 06:49:55;;;;;;;15.85;7.13;;;7.60;99.90;;;;;;4028546;29;20216;-90
2023/04/15 06:51:56;;;;;;;14.38;6.50;;;8.30;99.90;;;;;;4058055;29;20504;-89
2023/04/15 06:53:57;;;;;;;13.68;6.18;;;7.90;99.90;;;;;;4039764;29;20025;-89
2023/04/15 06:55:59;;;;;;;13.60;6.70;;;7.90;99.90;;;;;;4042436;29;20049;-89
2023/04/15 06:58:07;;;;;;;16.73;6.63;;;8.00;99.90;;;;;;4039987;29;20048;-89
2023/04/15 07:00:10;;;;;;;14.98;7.03;;;8.10;99.90;;;;;;4042670;29;20557;-88
2023/04/15 07:02:13;;;;;;;13.00;6.63;;;8.10;99.90;;;;;;4056874;29;20516;-90
2023/04/15 07:04:15;;;;;;;17.00;7.80;;;8.10;99.90;;;;;;4051326;29;20059;-90
2023/04/15 07:06:17;;;;;;;11.63;6.28;;;8.40;99.90;;;;;;4042603;29;20049;-91
2023/04/15 07:08:18;;;;;;;11.93;6.03;;;8.40;99.90;;;;;;4041138;29;20056;-90
2023/04/15 07:10:28;;;;;;;14.48;7.15;;;8.20;99.90;;;;;;4029262;29;20050;-91
2023/04/15 07:12:29;;;;;;;15.05;6.60;;;8.30;99.90;;;;;;4041135;29;20506;-90
2023/04/15 07:14:31;;;;;;;12.38;6.38;;;8.40;99.90;;;;;;4028312;29;20048;-91
2023/04/15 07:16:32;;;;;;;9.80;5.60;;;8.30;99.90;;;;;;4041595;29;20048;-91
2023/04/15 07:18:33;;;;;;;12.48;6.63;;;8.40;99.90;;;;;;4053639;29;20045;-91
2023/04/15 07:20:35;;;;;;;12.23;5.72;;;8.30;99.90;;;;;;4029865;29;20528;-91
2023/04/15 07:22:38;;;;;;;13.15;5.93;;;8.30;99.90;;;;;;4025722;29;20045;-91
2023/04/15 07:24:39;;;;;;;12.77;6.60;;;8.40;99.90;;;;;;4044288;29;20053;-91
2023/04/15 07:26:42;;;;;;;14.27;6.20;;;8.40;99.90;;;;;;4034220;29;20045;-91
2023/04/15 07:28:45;;;;;;;9.90;5.82;;;8.40;99.90;;;;;;4063404;29;20045;-90
2023/04/15 07:30:46;;;;;;;12.48;5.55;;;8.50;99.90;;;;;;4047313;29;20104;-90
2023/04/15 07:32:47;;;;;;;13.13;5.63;;;8.40;99.90;;;;;;4034076;29;20174;-90
2023/04/15 07:34:49;;;;;;;14.63;5.63;;;8.40;99.90;;;;;;4049865;29;20053;-91
2023/04/15 07:36:50;;;;;;;11.75;4.80;;;7.60;99.90;;;;;;4026391;29;20046;-89
2023/04/15 07:38:51;;;;;;;10.93;4.90;;;8.40;99.90;;;;;;4027165;29;20072;-90
2023/04/15 07:40:53;;;;;;;11.20;5.40;;;8.60;99.90;;;;;;4056628;29;20037;-90
2023/04/15 07:42:57;;;;;;;11.75;5.45;;;8.90;99.90;;;;;;4040293;29;20045;-91
2023/04/15 07:44:57;;;;;;;8.07;4.20;;;8.50;99.90;;;;;;4035912;29;20049;-90
2023/04/15 07:46:58;;;;;;;19.73;5.82;;;8.70;99.90;;;;;;4024726;29;20490;-91
2023/04/15 07:48:59;;;;;;;9.60;4.80;;;8.60;99.90;;;;;;4023352;29;20060;-90
2023/04/15 07:51:03;;;;;;;10.90;4.65;;;8.70;99.90;;;;;;4039422;29;20125;-90
2023/04/15 07:53:08;;;;;;;13.60;6.60;;;8.80;99.90;;;;;;4021627;29;20045;-90
2023/04/15 07:55:10;;;;;;;10.13;4.78;;;8.80;99.90;;;;;;4024118;29;20045;-91
2023/04/15 07:57:11;;;;;;;10.45;4.93;;;9.10;99.90;;;;;;4014716;29;20105;-88
2023/04/15 07:59:11;;;;;;;9.70;4.75;;;8.80;99.90;;;;;;4030681;29;20476;-88
2023/04/15 08:01:13;;;;;;;9.20;4.65;;;8.00;99.90;;;;;;4036238;29;20053;-88
2023/04/15 08:03:15;;;;;;;6.65;3.85;;;9.40;99.90;;;;;;4055645;29;20075;-88
2023/04/15 08:05:16;;;;;;;5.60;3.25;;;9.00;99.90;;;;;;4044336;29;20053;-88
2023/04/15 08:07:17;;;;;;;10.02;4.35;;;8.90;99.90;;;;;;4051789;29;20057;-89
2023/04/15 08:09:18;;;;;;;8.25;4.05;;;7.70;99.90;;;;;;4047756;29;20053;-88
2023/04/15 08:11:20;;;;;;;11.43;5.15;;;8.80;99.90;;;;;;4048218;29;20078;-87
2023/04/15 08:13:20;;;;;;;7.15;3.85;;;8.80;99.90;;;;;;4038915;29;20552;-88
2023/04/15 08:15:22;;;;;;;9.63;4.28;;;8.90;99.90;;;;;;4055420;29;20033;-88
2023/04/15 08:17:24;;;;;;;9.18;3.63;;;8.90;99.90;;;;;;4040364;29;20069;-88
2023/04/15 08:19:27;;;;;;;9.95;3.25;;;8.90;99.90;;;;;;4033114;29;20054;-88
2023/04/15 08:21:31;;;;;;;9.70;3.67;;;8.80;99.90;;;;;;4027325;29;20061;-88
2023/04/15 08:23:32;;;;;;;6.38;3.25;;;8.80;99.90;;;;;;4023183;29;20594;-88
2023/04/15 08:25:34;;;;;;;8.75;4.05;;;8.70;99.90;;;;;;4008811;29;20094;-88
2023/04/15 08:27:35;;;;;;;6.63;3.80;;;8.50;99.90;;;;;;4008328;29;20537;-87
2023/04/15 08:29:37;;;;;;;7.82;3.40;;;8.60;99.90;;;;;;4024397;29;20045;-89
2023/04/15 08:31:38;;;;;;;13.57;3.47;;;8.70;99.90;;;;;;4023663;29;20056;-88
2023/04/15 08:33:39;;;;;;;6.15;3.10;;;8.60;99.90;;;;;;4023020;29;20054;-88
2023/04/15 08:35:41;;;;;;;7.18;3.53;;;7.90;99.90;;;;;;4040655;29;20037;-88
2023/04/15 08:37:45;;;;;;;5.03;2.65;;;8.70;99.90;;;;;;4006996;29;20056;-88
2023/04/15 08:39:45;;;;;;;5.10;2.90;;;8.70;99.90;;;;;;4039926;29;20083;-88
2023/04/15 08:42:01;;;;;;;4.72;2.60;;;8.60;99.90;;;;;;4039174;29;20049;-88
2023/04/15 08:44:04;;;;;;;5.68;2.58;;;9.30;99.90;;;;;;4008328;29;20042;-88
2023/04/15 08:46:08;;;;;;;10.02;3.45;;;8.70;99.90;;;;;;4024626;29;20074;-88
2023/04/15 08:48:15;;;;;;;6.38;2.17;;;8.70;99.90;;;;;;4007466;29;20519;-88
2023/04/15 08:50:16;;;;;;;7.53;2.00;;;8.90;99.90;;;;;;4039527;29;20049;-88
2023/04/15 08:52:17;;;;;;;5.28;2.15;;;8.80;99.90;;;;;;4023607;29;20041;-88
2023/04/15 08:54:20;;;;;;;3.65;2.05;;;8.90;99.90;;;;;;4022285;29;20045;-87
2023/04/15 08:56:28;;;;;;;5.55;2.08;;;8.80;99.90;;;;;;4007771;29;20093;-87
2023/04/15 08:58:29;;;;;;;2.72;1.77;;;10.00;99.90;;;;;;4013607;29;20038;-87
2023/04/15 09:00:31;;;;;;;5.55;1.88;;;9.00;99.90;;;;;;4038172;29;20540;-88
2023/04/15 09:02:33;;;;;;;7.18;2.22;;;8.90;99.90;;;;;;4052643;29;20052;-88
2023/04/15 09:04:34;;;;;;;8.98;2.08;;;8.90;99.90;;;;;;4046556;29;20087;-88
2023/04/15 09:06:35;;;;;;;14.65;3.35;;;8.90;99.90;;;;;;4041624;29;20095;-88
2023/04/15 09:08:35;;;;;;;7.35;1.60;;;8.90;99.90;;;;;;4024559;29;20057;-88
2023/04/15 09:10:39;;;;;;;5.03;1.88;;;9.00;99.90;;;;;;4050084;29;20045;-88
2023/04/15 09:12:44;;;;;;;4.55;1.85;;;9.20;99.90;;;;;;4055678;29;20052;-89
2023/04/15 09:14:46;;;;;;;6.15;2.03;;;9.00;99.90;;;;;;3995282;29;20587;-88
2023/04/15 09:16:57;;;;;;;2.70;1.60;;;9.10;99.90;;;;;;4025529;29;20046;-88
2023/04/15 09:18:58;;;;;;;3.80;2.00;;;9.30;99.90;;;;;;4039562;29;20542;-87
2023/04/15 09:21:16;;;;;;;1.98;1.10;;;9.30;99.90;;;;;;4024496;29;20110;-88
2023/04/15 09:23:17;;;;;;;1.92;1.23;;;9.50;99.90;;;;;;4057817;29;20119;-86
2023/04/15 09:25:20;;;;;;;3.85;1.20;;;9.60;99.90;;;;;;4049314;29;20052;-87
2023/04/15 09:27:21;;;;;;;3.15;1.30;;;9.70;99.90;;;;;;4029392;29;20472;-88
2023/04/15 09:29:24;;;;;;;3.40;1.50;;;9.70;99.90;;;;;;4025169;29;20132;-87
2023/04/15 09:31:29;;;;;;;4.65;1.95;;;9.90;99.90;;;;;;4040752;29;20041;-88
2023/04/15 09:33:30;;;;;;;2.15;1.42;;;10.00;99.90;;;;;;4040794;29;20037;-88
2023/04/15 09:35:31;;;;;;;1.35;1.00;;;10.00;99.90;;;;;;4057830;29;20052;-87
2023/04/15 09:37:35;;;;;;;2.17;1.23;;;10.10;99.90;;;;;;4041810;29;20061;-87
2023/04/15 09:39:46;;;;;;;2.08;1.05;;;9.80;99.90;;;;;;4040526;29;20478;-88
2023/04/15 09:42:04;;;;;;;1.60;0.95;;;10.00;99.90;;;;;;4059349;29;20036;-86
2023/04/15 09:44:05;;;;;;;11.23;1.70;;;10.00;99.90;;;;;;4038979;29;20395;-83
2023/04/15 09:46:06;;;;;;;2.40;1.15;;;10.10;99.90;;;;;;4050511;29;20545;-85
2023/04/15 09:48:21;;;;;;;4.15;1.10;;;10.00;99.90;;;;;;4031250;29;20049;-88
2023/04/15 09:50:40;;;;;;;2.75;1.20;;;10.00;99.90;;;;;;4026453;29;20094;-92
2023/04/15 09:52:53;;;;;;;3.10;1.50;;;10.20;99.90;;;;;;4045738;29;20060;-93
2023/04/15 09:54:59;;;;;;;4.95;1.50;;;10.00;99.90;;;;;;4029091;29;20422;-93
2023/04/15 09:57:12;;;;;;;2.25;1.40;;;10.00;99.90;;;;;;4043959;29;20045;-90
2023/04/15 09:59:19;;;;;;;1.52;0.80;;;10.10;99.90;;;;;;4021843;29;20050;-93
2023/04/15 10:01:30;;;;;;;2.10;1.00;;;10.10;99.90;;;;;;4015206;29;20045;-92
2023/04/15 10:03:41;;;;;;;1.83;0.90;;;10.20;99.90;;;;;;4037030;29;20143;-90
2023/04/15 10:05:42;;;;;;;2.55;0.98;;;10.10;99.90;;;;;;4043704;29;20040;-90
2023/04/15 10:07:43;;;;;;;1.85;0.73;;;10.20;99.90;;;;;;4023171;29;20053;-89
2023/04/15 10:09:45;;;;;;;3.22;1.58;;;10.20;99.90;;;;;;4029100;29;20053;-90
2023/04/15 10:11:48;;;;;;;4.85;1.40;;;10.20;99.90;;;;;;4045771;29;20064;-89
2023/04/15 10:13:52;;;;;;;4.47;1.42;;;10.30;99.90;;;;;;4029981;29;20093;-91
2023/04/15 10:16:06;;;;;;;4.57;1.60;;;10.80;99.90;;;;;;4029576;29;20049;-89
2023/04/15 10:18:09;;;;;;;4.97;1.20;;;10.40;99.90;;;;;;4012138;29;20466;-88
2023/04/15 10:20:11;;;;;;;3.72;1.77;;;10.20;99.90;;;;;;4018688;29;20126;-91
2023/04/15 10:22:13;;;;;;;4.90;1.40;;;10.20;99.90;;;;;;4043150;29;20057;-91
2023/04/15 10:24:16;;;;;;;4.22;1.50;;;10.20;99.90;;;;;;4011530;29;20049;-90
2023/04/15 10:26:17;;;;;;;9.30;2.15;;;10.20;99.90;;;;;;4033188;29;20045;-90
2023/04/15 10:28:21;;;;;;;3.08;1.52;;;10.20;99.90;;;;;;4041244;29;20071;-91
2023/04/15 10:30:22;;;;;;;5.97;1.20;;;10.20;99.90;;;;;;4025082;29;20048;-90
2023/04/15 10:32:25;;;;;;;3.47;1.10;;;10.20;99.90;;;;;;4021381;29;20053;-90
2023/04/15 10:34:27;;;;;;;5.85;1.40;;;10.20;99.90;;;;;;4050951;29;20044;-90
2023/04/15 10:36:28;;;;;;;7.38;2.22;;;9.50;99.90;;;;;;4039777;29;20045;-90
2023/04/15 10:38:41;;;;;;;4.03;1.60;;;10.20;99.90;;;;;;4041549;29;20057;-90
2023/04/15 10:40:44;;;;;;;9.15;2.25;;;10.40;99.90;;;;;;4028763;29;20049;-90
2023/04/15 10:42:46;;;;;;;5.28;1.83;;;10.20;99.90;;;;;;4042190;29;20542;-88